Time;durP1;ratioP1;P1;durP2;ratioP2;P2;SDS_P1;SDS_P2;PMS_P1;PMS_P2;Temp;Humidity;BMP_temperature;BMP_pressure;BME280_temperature;BME280_humidity;BME280_pressure;Samples;Min_cycle;Max_cycle;Signal;HPM_P1;HPM_P2
2021/03/08 00:00:51;;;;;;;24.05;15.38;;;-1.50;99.90;;;;;;5022208;28;20118;-72
2021/03/08 00:03:35;;;;;;;24.55;16.08;;;-1.60;99.90;;;;;;5025158;28;20175;-72
2021/03/08 00:06:19;;;;;;;25.77;15.43;;;-1.80;99.90;;;;;;5020071;28;20084;-72
2021/03/08 00:09:04;;;;;;;24.15;15.80;;;-1.80;99.90;;;;;;5025852;28;20064;-72
2021/03/08 00:11:48;;;;;;;24.67;15.77;;;-1.70;99.90;;;;;;5018400;28;20061;-72
2021/03/08 00:14:32;;;;;;;28.48;17.67;;;-1.70;99.90;;;;;;5020660;28;20060;-72
2021/03/08 00:17:17;;;;;;;27.40;16.52;;;-1.70;99.90;;;;;;5013003;28;20045;-72
2021/03/08 00:20:05;;;;;;;26.85;16.80;;;-1.80;99.90;;;;;;5023996;28;20068;-72
2021/03/08 00:22:50;;;;;;;26.27;16.60;;;-1.90;99.90;;;;;;5017792;28;20521;-72
2021/03/08 00:25:35;;;;;;;26.65;16.20;;;-2.00;99.90;;;;;;5016083;28;20045;-72
2021/03/08 00:28:19;;;;;;;24.13;15.10;;;-1.90;99.90;;;;;;5014022;28;20483;-73
2021/03/08 00:31:03;;;;;;;24.27;14.60;;;-1.90;99.90;;;;;;5013803;28;20200;-71
2021/03/08 00:33:47;;;;;;;25.23;15.95;;;-1.80;99.90;;;;;;5008770;28;20099;-73
2021/03/08 00:36:31;;;;;;;26.05;16.00;;;-1.90;99.90;;;;;;5016376;28;20049;-72
2021/03/08 00:39:15;;;;;;;29.23;15.70;;;-1.90;99.90;;;;;;5016362;28;20110;-73
2021/03/08 00:41:59;;;;;;;22.55;14.23;;;-1.70;99.90;;;;;;5015142;28;20092;-73
2021/03/08 00:44:43;;;;;;;25.10;14.68;;;-1.60;99.90;;;;;;5014510;28;20176;-74
2021/03/08 00:47:28;;;;;;;26.20;16.08;;;-1.60;99.90;;;;;;5023762;28;20096;-74
2021/03/08 00:50:16;;;;;;;25.30;15.65;;;-1.70;99.90;;;;;;5021594;28;20152;-74
2021/03/08 00:53:00;;;;;;;20.02;12.95;;;-1.70;99.90;;;;;;5022689;28;20467;-73
2021/03/08 00:55:44;;;;;;;22.90;13.10;;;-1.70;99.90;;;;;;5028860;28;20091;-74
2021/03/08 00:58:29;;;;;;;21.15;13.32;;;-1.70;99.90;;;;;;5027314;28;20132;-73
2021/03/08 01:01:13;;;;;;;26.92;14.27;;;-1.80;99.90;;;;;;5034240;28;20068;-73
2021/03/08 01:03:57;;;;;;;27.73;14.93;;;-1.90;99.90;;;;;;5022672;28;20428;-73
2021/03/08 01:06:41;;;;;;;25.98;15.73;;;-1.90;99.90;;;;;;5023914;28;20084;-73
2021/03/08 01:09:26;;;;;;;22.55;14.65;;;-2.00;99.90;;;;;;5027472;28;20164;-73
2021/03/08 01:12:11;;;;;;;23.90;14.18;;;-1.90;99.90;;;;;;5016286;28;20065;-74
2021/03/08 01:14:56;;;;;;;20.77;14.18;;;-1.80;99.90;;;;;;5012621;28;20044;-74
2021/03/08 01:17:40;;;;;;;23.42;15.00;;;-1.60;99.90;;;;;;5030893;28;20391;-74
2021/03/08 01:20:24;;;;;;;21.67;13.15;;;-1.70;99.90;;;;;;5023804;28;20112;-73
2021/03/08 01:23:08;;;;;;;23.33;13.95;;;-1.70;99.90;;;;;;5022461;28;20083;-73
2021/03/08 01:25:52;;;;;;;21.90;13.02;;;-1.60;99.90;;;;;;5022573;28;20041;-73
2021/03/08 01:28:36;;;;;;;22.58;12.85;;;-1.60;99.90;;;;;;5022509;28;20064;-73
2021/03/08 01:31:20;;;;;;;24.83;14.13;;;-1.60;99.90;;;;;;5024066;28;20106;-74
2021/03/08 01:34:05;;;;;;;21.77;13.70;;;-1.50;99.90;;;;;;5024257;28;20048;-74
2021/03/08 01:36:49;;;;;;;22.60;14.45;;;-1.50;99.90;;;;;;5026273;28;20564;-73
2021/03/08 01:39:33;;;;;;;19.80;13.10;;;-1.50;99.90;;;;;;5015236;28;20111;-73
2021/03/08 01:42:17;;;;;;;27.38;14.57;;;-1.40;99.90;;;;;;5023173;28;20510;-73
2021/03/08 01:45:07;;;;;;;23.92;13.70;;;-1.40;99.90;;;;;;5019242;28;20045;-74
2021/03/08 01:47:52;;;;;;;21.23;13.90;;;-1.40;99.90;;;;;;5014376;28;20486;-73
2021/03/08 01:50:45;;;;;;;23.60;15.07;;;-1.40;99.90;;;;;;5017653;28;20111;-74
2021/03/08 01:53:30;;;;;;;26.40;15.30;;;-1.50;99.90;;;;;;5022881;28;20112;-73
2021/03/08 01:56:14;;;;;;;21.23;13.73;;;-1.50;99.90;;;;;;5021185;28;20141;-73
2021/03/08 01:58:59;;;;;;;23.20;14.73;;;-1.50;99.90;;;;;;5022169;28;20040;-73
2021/03/08 02:01:43;;;;;;;24.60;15.90;;;-1.50;99.90;;;;;;5022862;28;20040;-73
2021/03/08 02:04:27;;;;;;;27.35;16.23;;;-1.60;99.90;;;;;;5020924;28;20151;-74
2021/03/08 02:07:11;;;;;;;22.30;14.52;;;-1.60;99.90;;;;;;5022274;28;20084;-74
2021/03/08 02:09:55;;;;;;;26.25;16.25;;;-1.70;99.90;;;;;;5016426;28;20045;-73
2021/03/08 02:12:48;;;;;;;25.75;15.02;;;-1.80;99.90;;;;;;5016444;28;20849;-73
2021/03/08 02:15:56;;;;;;;26.08;15.88;;;-1.80;99.90;;;;;;5018656;28;20048;-74
2021/03/08 02:18:43;;;;;;;25.02;16.05;;;-1.70;99.90;;;;;;5018842;28;20107;-73
2021/03/08 02:22:00;;;;;;;26.98;16.40;;;-1.70;99.90;;;;;;5016179;28;20176;-74
2021/03/08 02:25:17;;;;;;;26.60;16.27;;;-1.80;99.90;;;;;;5018446;28;20065;-73
2021/03/08 02:28:42;;;;;;;26.15;15.85;;;-1.90;99.90;;;;;;5015619;28;20040;-73
2021/03/08 02:31:28;;;;;;;25.85;16.38;;;-1.90;99.90;;;;;;5016794;28;20141;-74
2021/03/08 02:34:20;;;;;;;27.92;17.40;;;-2.00;99.90;;;;;;5022116;28;20049;-74
2021/03/08 02:37:14;;;;;;;28.25;17.58;;;-2.00;99.90;;;;;;5014995;28;20075;-73
2021/03/08 02:40:19;;;;;;;26.65;16.67;;;-2.10;99.90;;;;;;5011485;28;20192;-74
2021/03/08 02:43:14;;;;;;;25.75;15.98;;;-2.10;99.90;;;;;;5019384;28;20569;-72
2021/03/08 02:46:04;;;;;;;27.95;17.05;;;-2.10;99.90;;;;;;5018790;28;20056;-73
2021/03/08 02:48:50;;;;;;;28.88;17.98;;;-2.10;99.90;;;;;;5018050;28;20040;-73
2021/03/08 02:51:43;;;;;;;27.63;18.30;;;-2.20;99.90;;;;;;5019743;28;20051;-73
2021/03/08 02:54:30;;;;;;;26.67;16.90;;;-2.20;99.90;;;;;;5019998;28;20049;-73
2021/03/08 02:57:17;;;;;;;30.85;18.65;;;-2.30;99.90;;;;;;5020453;28;20052;-73
2021/03/08 03:00:06;;;;;;;30.70;19.23;;;-2.30;99.90;;;;;;5024732;28;20510;-73
2021/03/08 03:02:51;;;;;;;33.00;18.65;;;-2.30;99.90;;;;;;5024515;28;20036;-73
2021/03/08 03:05:38;;;;;;;34.10;17.63;;;-2.30;99.90;;;;;;5011825;28;20049;-73
2021/03/08 03:08:23;;;;;;;27.70;17.95;;;-2.30;99.90;;;;;;5008796;28;20052;-73
2021/03/08 03:11:08;;;;;;;34.38;19.65;;;-2.30;99.90;;;;;;5013328;28;20127;-73
2021/03/08 03:13:54;;;;;;;32.83;20.40;;;-2.40;99.90;;;;;;5024816;28;20095;-73
2021/03/08 03:16:44;;;;;;;32.10;20.92;;;-2.40;99.90;;;;;;5022026;28;20064;-73
2021/03/08 03:19:31;;;;;;;36.47;21.73;;;-2.40;99.90;;;;;;5022086;28;20048;-73
2021/03/08 03:22:15;;;;;;;40.17;22.17;;;-2.50;99.90;;;;;;5016800;28;20437;-73
2021/03/08 03:25:01;;;;;;;36.25;21.55;;;-2.50;99.90;;;;;;5022882;28;20036;-73
2021/03/08 03:27:49;;;;;;;37.42;22.08;;;-2.50;99.90;;;;;;5022067;28;20045;-73
2021/03/08 03:30:34;;;;;;;38.10;23.42;;;-2.50;99.90;;;;;;5020440;28;20580;-73
2021/03/08 03:33:19;;;;;;;38.63;23.27;;;-2.50;99.90;;;;;;5020930;28;20532;-73
2021/03/08 03:36:03;;;;;;;46.33;24.67;;;-2.40;99.90;;;;;;5013787;28;20103;-73
2021/03/08 03:38:50;;;;;;;40.83;24.45;;;-2.40;99.90;;;;;;5016051;28;20068;-73
2021/03/08 03:41:35;;;;;;;35.42;22.83;;;-2.40;99.90;;;;;;5009652;28;20081;-73
2021/03/08 03:44:19;;;;;;;41.25;23.48;;;-2.40;99.90;;;;;;5016276;28;20040;-73
2021/03/08 03:47:03;;;;;;;36.80;21.23;;;-2.50;99.90;;;;;;5017790;28;20044;-73
2021/03/08 03:49:47;;;;;;;36.45;21.95;;;-2.40;99.90;;;;;;5020469;28;20049;-73
2021/03/08 03:52:32;;;;;;;33.55;20.70;;;-2.40;99.90;;;;;;5020534;28;20097;-72
2021/03/08 03:55:18;;;;;;;37.55;21.00;;;-2.40;99.90;;;;;;5023258;28;20049;-72
2021/03/08 03:58:25;;;;;;;31.67;20.52;;;-2.40;99.90;;;;;;5022600;28;20056;-73
2021/03/08 04:01:21;;;;;;;36.35;22.17;;;-2.30;99.90;;;;;;5021789;28;20103;-73
2021/03/08 04:04:14;;;;;;;36.58;22.00;;;-2.30;99.90;;;;;;5020865;28;20041;-73
2021/03/08 04:07:03;;;;;;;33.47;20.60;;;-2.40;99.90;;;;;;5015680;28;20098;-72
2021/03/08 04:09:52;;;;;;;32.22;20.13;;;-2.40;99.90;;;;;;5017984;28;20045;-72
2021/03/08 04:12:39;;;;;;;35.63;21.13;;;-2.50;99.90;;;;;;5011384;28;20461;-73
2021/03/08 04:15:27;;;;;;;35.03;21.65;;;-2.60;99.90;;;;;;5013422;28;20087;-73
2021/03/08 04:18:12;;;;;;;34.97;22.08;;;-2.70;99.90;;;;;;5023037;28;20510;-73
2021/03/08 04:20:59;;;;;;;36.67;21.23;;;-2.80;99.90;;;;;;5017167;28;20111;-73
2021/03/08 04:23:44;;;;;;;36.17;21.23;;;-2.70;99.90;;;;;;5029673;28;20497;-73
2021/03/08 04:26:29;;;;;;;37.00;21.20;;;-2.70;99.90;;;;;;5014611;28;20117;-73
2021/03/08 04:29:14;;;;;;;33.88;21.90;;;-2.80;99.90;;;;;;5019157;28;20044;-73
2021/03/08 04:32:00;;;;;;;38.83;23.05;;;-2.90;99.90;;;;;;5022645;28;20430;-73
2021/03/08 04:34:45;;;;;;;36.47;23.65;;;-3.10;99.90;;;;;;5018554;28;20502;-73
2021/03/08 04:37:29;;;;;;;42.08;23.60;;;-3.20;99.90;;;;;;5022812;28;20056;-73
2021/03/08 04:40:15;;;;;;;39.22;22.80;;;-3.10;99.90;;;;;;5019403;28;20100;-73
2021/03/08 04:43:04;;;;;;;37.33;21.45;;;-3.20;99.90;;;;;;5019832;28;20091;-73
2021/03/08 04:45:49;;;;;;;39.08;22.63;;;-3.10;99.90;;;;;;5017174;28;20255;-73
2021/03/08 04:48:35;;;;;;;34.90;21.92;;;-3.10;99.90;;;;;;5023575;28;20041;-73
2021/03/08 04:51:20;;;;;;;36.80;22.52;;;-3.10;99.90;;;;;;5019107;28;20049;-73
2021/03/08 04:54:05;;;;;;;38.38;22.33;;;-3.20;99.90;;;;;;5020814;28;20072;-73
2021/03/08 04:56:51;;;;;;;34.72;20.88;;;-3.20;99.90;;;;;;5023520;28;20045;-73
2021/03/08 04:59:35;;;;;;;38.33;21.52;;;-3.30;99.90;;;;;;5019151;28;20071;-73
2021/03/08 05:02:21;;;;;;;37.28;22.20;;;-3.30;99.90;;;;;;5020065;28;20091;-73
2021/03/08 05:05:08;;;;;;;39.85;23.80;;;-3.30;99.90;;;;;;5022248;28;20041;-73
2021/03/08 05:08:14;;;;;;;38.10;23.92;;;-3.40;99.90;;;;;;5025025;28;20443;-73
2021/03/08 05:11:01;;;;;;;41.42;24.67;;;-3.40;99.90;;;;;;5020506;28;20048;-73
2021/03/08 05:13:48;;;;;;;39.88;23.60;;;-3.30;99.90;;;;;;5021479;28;20546;-73
2021/03/08 05:16:36;;;;;;;39.58;22.27;;;-3.30;99.90;;;;;;5015155;28;20069;-73
2021/03/08 05:19:21;;;;;;;36.22;22.38;;;-3.20;99.90;;;;;;5015687;28;20052;-73
2021/03/08 05:22:06;;;;;;;42.95;23.83;;;-3.20;99.90;;;;;;5027764;28;20091;-73
2021/03/08 05:24:51;;;;;;;41.63;23.45;;;-3.20;99.90;;;;;;5018395;28;20639;-73
2021/03/08 05:27:37;;;;;;;39.00;22.95;;;-3.20;99.90;;;;;;5015996;28;20237;-73
2021/03/08 05:30:23;;;;;;;40.60;22.70;;;-3.30;99.90;;;;;;5013893;28;20077;-73
2021/03/08 05:33:16;;;;;;;41.28;24.33;;;-3.20;99.90;;;;;;5024550;28;20040;-73
2021/03/08 05:36:03;;;;;;;36.25;21.92;;;-3.20;99.90;;;;;;5023713;28;20044;-73
2021/03/08 05:38:49;;;;;;;39.75;22.65;;;-3.20;99.90;;;;;;5016018;28;20073;-72
2021/03/08 05:41:49;;;;;;;36.47;22.98;;;-3.20;99.90;;;;;;5022709;28;20091;-72
2021/03/08 05:44:35;;;;;;;41.17;23.20;;;-3.20;99.90;;;;;;5027281;28;20090;-72
2021/03/08 05:47:49;;;;;;;40.33;23.00;;;-3.20;99.90;;;;;;5017094;28;20060;-73
2021/03/08 05:51:02;;;;;;;41.65;23.33;;;-3.30;99.90;;;;;;5016806;28;20534;-72
2021/03/08 05:54:00;;;;;;;44.10;23.97;;;-3.30;99.90;;;;;;5024786;28;20061;-71
2021/03/08 05:57:21;;;;;;;43.83;24.38;;;-3.30;99.90;;;;;;5030829;28;20295;-73
2021/03/08 06:00:26;;;;;;;45.17;24.25;;;-3.30;99.90;;;;;;5041792;28;20084;-73
2021/03/08 06:03:32;;;;;;;42.70;23.48;;;-3.30;99.90;;;;;;5020337;28;20067;-73
2021/03/08 06:06:44;;;;;;;37.28;22.45;;;-3.30;99.90;;;;;;5021555;28;20056;-73
2021/03/08 06:09:54;;;;;;;40.95;23.73;;;-3.30;99.90;;;;;;5023413;28;20087;-73
2021/03/08 06:12:40;;;;;;;39.85;22.40;;;-3.30;99.90;;;;;;5020904;28;20142;-73
2021/03/08 06:15:27;;;;;;;43.95;23.77;;;-3.40;99.90;;;;;;5028559;28;20420;-73
2021/03/08 06:18:12;;;;;;;44.83;25.98;;;-3.40;99.90;;;;;;5033348;28;20390;-73
2021/03/08 06:20:56;;;;;;;45.47;24.55;;;-3.50;99.90;;;;;;5016212;28;20052;-73
2021/03/08 06:23:42;;;;;;;46.13;23.92;;;-3.50;99.90;;;;;;5024890;28;20133;-73
2021/03/08 06:26:29;;;;;;;43.97;24.30;;;-3.40;99.90;;;;;;5020198;28;20044;-73
2021/03/08 06:29:13;;;;;;;42.00;23.55;;;-3.30;99.90;;;;;;5020722;28;20103;-73
2021/03/08 06:31:58;;;;;;;44.45;24.75;;;-3.20;99.90;;;;;;5017604;28;20037;-73
2021/03/08 06:34:42;;;;;;;37.17;22.52;;;-3.20;99.90;;;;;;5016829;28;20560;-73
2021/03/08 06:37:27;;;;;;;39.22;22.40;;;-3.10;99.90;;;;;;5019638;28;20096;-73
2021/03/08 06:40:12;;;;;;;39.17;22.35;;;-3.00;99.90;;;;;;5024962;28;20040;-73
2021/03/08 06:42:57;;;;;;;42.03;22.00;;;-3.00;99.90;;;;;;5021416;28;20047;-73
2021/03/08 06:45:41;;;;;;;34.33;20.30;;;-3.00;99.90;;;;;;5013417;28;20048;-74
2021/03/08 06:48:25;;;;;;;38.58;21.33;;;-2.90;99.90;;;;;;5017608;28;20075;-73
2021/03/08 06:51:18;;;;;;;38.72;21.38;;;-2.70;99.90;;;;;;5017896;28;20159;-73
2021/03/08 06:54:17;;;;;;;29.35;18.85;;;-2.70;99.90;;;;;;5019191;28;20543;-73
2021/03/08 06:57:01;;;;;;;32.30;18.50;;;-2.60;99.90;;;;;;5017457;28;20103;-73
2021/03/08 06:59:58;;;;;;;33.00;17.77;;;-2.50;99.90;;;;;;5022929;28;20048;-74
2021/03/08 07:02:47;;;;;;;33.15;18.05;;;-2.50;99.90;;;;;;5017682;28;20514;-73
2021/03/08 07:05:31;;;;;;;29.15;18.45;;;-2.30;99.90;;;;;;5026361;28;20465;-74
2021/03/08 07:08:23;;;;;;;27.23;17.30;;;-2.30;99.90;;;;;;5022323;28;20497;-73
2021/03/08 07:11:37;;;;;;;25.08;16.35;;;-2.10;99.90;;;;;;5019768;28;20175;-73
2021/03/08 07:14:22;;;;;;;28.70;17.05;;;-2.10;99.90;;;;;;5024981;28;20130;-73
2021/03/08 07:17:26;;;;;;;27.38;16.40;;;-2.00;99.90;;;;;;5024146;28;20477;-72
2021/03/08 07:20:14;;;;;;;25.52;15.13;;;-1.90;99.90;;;;;;5020383;28;20063;-72
2021/03/08 07:22:58;;;;;;;24.23;13.93;;;-1.80;99.90;;;;;;5018271;28;20064;-71
2021/03/08 07:25:42;;;;;;;22.65;11.88;;;-1.60;99.90;;;;;;5023431;28;20450;-71
2021/03/08 07:28:27;;;;;;;18.92;11.63;;;-1.30;99.90;;;;;;5020999;28;20064;-72
2021/03/08 07:31:41;;;;;;;19.52;11.57;;;-1.10;99.90;;;;;;5028849;28;20266;-72
2021/03/08 07:34:25;;;;;;;19.05;11.95;;;-0.80;99.90;;;;;;5024329;28;20155;-72
2021/03/08 07:37:09;;;;;;;18.92;10.18;;;-0.60;99.90;;;;;;5028073;28;20163;-72
2021/03/08 07:39:53;;;;;;;19.38;10.90;;;-0.30;99.90;;;;;;5027619;28;20045;-72
2021/03/08 07:42:42;;;;;;;20.30;10.27;;;0.10;99.90;;;;;;5018497;28;20403;-71
2021/03/08 07:45:44;;;;;;;18.65;11.65;;;0.60;99.90;;;;;;5021363;28;20083;-72
2021/03/08 07:48:29;;;;;;;23.45;11.95;;;1.20;99.90;;;;;;5020003;28;20080;-72
2021/03/08 07:51:13;;;;;;;22.98;13.18;;;1.60;99.90;;;;;;5020708;28;20068;-72
2021/03/08 07:54:03;;;;;;;21.50;13.02;;;1.90;99.90;;;;;;5017759;28;20053;-72
2021/03/08 07:56:47;;;;;;;20.50;13.77;;;2.60;99.90;;;;;;5018176;28;20037;-73
2021/03/08 07:59:32;;;;;;;21.70;14.05;;;3.10;99.90;;;;;;5028021;28;20531;-73
2021/03/08 08:02:16;;;;;;;13.55;9.75;;;3.50;99.90;;;;;;5022220;28;20096;-72
2021/03/08 08:05:01;;;;;;;12.90;8.88;;;3.80;99.90;;;;;;5027916;28;20399;-73
2021/03/08 08:07:47;;;;;;;13.48;8.45;;;3.80;99.90;;;;;;5027839;28;20427;-72
2021/03/08 08:10:31;;;;;;;11.57;7.90;;;3.80;99.90;;;;;;5022926;28;20045;-73
2021/03/08 08:13:17;;;;;;;10.95;7.40;;;3.90;99.90;;;;;;5025703;28;20110;-73
2021/03/08 08:16:06;;;;;;;9.55;6.40;;;4.10;99.90;;;;;;5026734;28;20174;-73
2021/03/08 08:19:06;;;;;;;12.13;7.60;;;3.60;99.90;;;;;;5022263;28;20064;-73
2021/03/08 08:21:54;;;;;;;11.45;7.40;;;3.80;99.90;;;;;;5025352;28;20043;-73
2021/03/08 08:24:41;;;;;;;13.70;7.65;;;4.20;99.90;;;;;;5023058;28;20100;-73
2021/03/08 08:27:26;;;;;;;12.07;7.05;;;4.60;99.90;;;;;;5024102;28;20049;-73
2021/03/08 08:30:11;;;;;;;10.00;6.95;;;4.80;99.90;;;;;;5023580;28;20165;-73
2021/03/08 08:32:57;;;;;;;12.73;6.00;;;4.70;99.90;;;;;;5023179;28;20036;-73
2021/03/08 08:35:41;;;;;;;11.48;5.55;;;4.90;99.90;;;;;;5026396;28;20121;-73
2021/03/08 08:38:26;;;;;;;10.07;6.35;;;4.80;99.90;;;;;;5022940;28;20367;-73
2021/03/08 08:41:39;;;;;;;8.90;6.00;;;4.90;99.90;;;;;;5036668;28;20111;-73
2021/03/08 08:44:27;;;;;;;8.27;5.43;;;5.20;99.90;;;;;;5022713;28;20052;-73
2021/03/08 08:47:13;;;;;;;9.38;5.28;;;5.50;99.90;;;;;;5031416;28;20114;-74
2021/03/08 08:50:08;;;;;;;12.95;6.18;;;5.30;99.90;;;;;;5031023;28;20091;-73
2021/03/08 08:52:54;;;;;;;9.85;6.20;;;5.30;99.90;;;;;;5025095;28;20112;-73
2021/03/08 08:55:38;;;;;;;11.68;7.50;;;5.00;99.90;;;;;;5026486;28;20223;-73
2021/03/08 08:58:30;;;;;;;12.07;6.78;;;5.10;99.90;;;;;;5032311;28;20048;-73
2021/03/08 09:01:22;;;;;;;11.18;6.50;;;5.70;99.90;;;;;;5034494;28;20132;-73
2021/03/08 09:04:12;;;;;;;11.68;7.40;;;5.90;99.90;;;;;;5029178;28;20043;-73
2021/03/08 09:07:00;;;;;;;12.88;7.80;;;5.80;99.90;;;;;;5021532;28;20103;-73
2021/03/08 09:09:47;;;;;;;11.82;7.75;;;5.90;99.90;;;;;;5030872;28;20044;-73
2021/03/08 09:12:43;;;;;;;12.52;7.97;;;6.10;99.90;;;;;;5018653;28;20500;-73
2021/03/08 09:15:28;;;;;;;11.40;8.40;;;6.90;99.90;;;;;;5025956;28;20052;-73
2021/03/08 09:18:12;;;;;;;14.55;9.23;;;7.50;99.90;;;;;;5028325;28;20624;-73
2021/03/08 09:21:17;;;;;;;14.43;8.80;;;6.60;99.90;;;;;;5029086;28;20421;-73
2021/03/08 09:24:28;;;;;;;14.55;8.73;;;6.30;99.90;;;;;;5022559;28;20060;-74
2021/03/08 09:27:24;;;;;;;15.80;10.02;;;6.40;99.90;;;;;;5027608;28;20036;-73
2021/03/08 09:30:21;;;;;;;12.82;8.88;;;6.10;99.90;;;;;;5018285;28;20125;-73
2021/03/08 09:33:06;;;;;;;14.50;9.63;;;6.40;99.90;;;;;;5023500;28;20411;-73
2021/03/08 09:35:57;;;;;;;18.05;10.52;;;6.20;99.90;;;;;;5019017;28;20095;-73
2021/03/08 09:38:42;;;;;;;15.25;9.35;;;5.80;99.90;;;;;;5020550;28;20048;-73
2021/03/08 09:41:29;;;;;;;16.83;9.95;;;5.60;99.90;;;;;;5019726;28;20163;-73
2021/03/08 09:44:14;;;;;;;14.57;9.13;;;5.40;99.90;;;;;;5026767;28;20113;-73
2021/03/08 09:46:58;;;;;;;19.08;9.43;;;5.30;99.90;;;;;;5024132;28;20048;-73
2021/03/08 09:49:46;;;;;;;18.67;8.70;;;5.10;99.90;;;;;;5020012;28;20438;-73
2021/03/08 09:52:38;;;;;;;16.17;9.27;;;4.90;99.90;;;;;;5023579;28;20195;-73
2021/03/08 09:55:28;;;;;;;15.25;9.05;;;4.50;99.90;;;;;;5018412;28;20691;-73
2021/03/08 09:58:14;;;;;;;19.17;9.38;;;4.50;99.90;;;;;;5025619;28;20115;-73
2021/03/08 10:00:59;;;;;;;19.52;9.63;;;4.30;99.90;;;;;;5023816;28;20505;-73
2021/03/08 10:03:44;;;;;;;14.95;8.77;;;4.50;99.90;;;;;;5020666;28;20149;-72
2021/03/08 10:06:32;;;;;;;16.50;8.82;;;4.80;99.90;;;;;;5022304;28;20053;-73
2021/03/08 10:09:23;;;;;;;17.10;9.75;;;5.00;99.90;;;;;;5023427;28;20125;-73
2021/03/08 10:12:08;;;;;;;14.63;9.23;;;4.80;99.90;;;;;;5017287;28;20059;-73
2021/03/08 10:14:59;;;;;;;14.70;8.82;;;4.80;99.90;;;;;;5018707;28;20064;-73
2021/03/08 10:17:59;;;;;;;17.08;8.85;;;4.80;99.90;;;;;;5023885;28;20068;-74
2021/03/08 10:20:51;;;;;;;14.48;8.45;;;4.70;99.90;;;;;;5023286;28;20052;-72
2021/03/08 10:23:36;;;;;;;14.60;7.97;;;4.60;99.90;;;;;;5016971;28;20058;-71
2021/03/08 10:26:21;;;;;;;22.70;8.00;;;4.70;99.90;;;;;;5014182;28;20094;-72
2021/03/08 10:29:05;;;;;;;12.82;7.93;;;4.80;99.90;;;;;;5027491;28;20099;-72
2021/03/08 10:31:52;;;;;;;15.10;7.35;;;5.00;99.90;;;;;;5022986;28;20071;-73
2021/03/08 10:34:37;;;;;;;15.00;6.97;;;4.90;99.90;;;;;;5021496;28;20423;-74
2021/03/08 10:37:21;;;;;;;13.15;7.10;;;5.00;99.90;;;;;;5020024;28;20080;-72
2021/03/08 10:40:06;;;;;;;10.05;5.65;;;5.00;99.90;;;;;;5017067;28;20462;-73
2021/03/08 10:42:51;;;;;;;13.60;6.18;;;4.90;99.90;;;;;;5025004;28;20091;-73
2021/03/08 10:45:36;;;;;;;14.70;6.20;;;4.90;99.90;;;;;;5020816;28;20075;-74
2021/03/08 10:48:20;;;;;;;16.15;7.60;;;4.80;99.90;;;;;;5026133;28;20060;-72
2021/03/08 10:51:05;;;;;;;16.52;7.03;;;5.00;99.90;;;;;;5016854;28;20045;-73
2021/03/08 10:54:00;;;;;;;14.70;7.28;;;5.10;99.90;;;;;;5020988;28;20412;-73
2021/03/08 10:56:44;;;;;;;12.88;6.65;;;5.00;99.90;;;;;;5016455;28;20060;-73
2021/03/08 10:59:29;;;;;;;14.98;7.15;;;5.10;99.90;;;;;;5021949;28;20044;-73
2021/03/08 11:02:15;;;;;;;12.20;6.82;;;5.40;99.90;;;;;;5024637;28;20056;-73
2021/03/08 11:05:14;;;;;;;16.38;7.78;;;5.30;99.90;;;;;;5021193;28;20140;-73
2021/03/08 11:08:00;;;;;;;11.38;5.90;;;5.60;99.90;;;;;;5024284;28;20512;-74
2021/03/08 11:10:44;;;;;;;14.43;5.93;;;5.70;99.90;;;;;;5020248;28;20048;-73
2021/03/08 11:13:32;;;;;;;12.95;6.32;;;5.70;99.90;;;;;;5027957;28;20341;-74
2021/03/08 11:16:17;;;;;;;13.93;5.85;;;5.60;99.90;;;;;;5024296;28;20085;-74
2021/03/08 11:19:22;;;;;;;12.32;6.32;;;5.80;99.90;;;;;;5020803;28;20517;-74
2021/03/08 11:22:07;;;;;;;13.65;6.25;;;6.00;99.90;;;;;;5023715;28;20092;-74
2021/03/08 11:24:52;;;;;;;11.75;6.03;;;5.70;99.90;;;;;;5018440;28;20040;-74
2021/03/08 11:27:46;;;;;;;25.15;6.20;;;5.90;99.90;;;;;;5019461;28;20040;-74
2021/03/08 11:30:31;;;;;;;10.55;5.38;;;6.00;99.90;;;;;;5021373;28;20052;-74
2021/03/08 11:33:15;;;;;;;16.55;6.43;;;5.80;99.90;;;;;;5023445;28;20048;-74
2021/03/08 11:35:59;;;;;;;11.63;5.43;;;5.80;99.90;;;;;;5021915;28;20052;-74
2021/03/08 11:38:49;;;;;;;9.68;5.55;;;6.00;99.90;;;;;;5023745;28;20064;-74
2021/03/08 11:41:34;;;;;;;12.20;5.60;;;6.20;99.90;;;;;;5015892;28;20103;-73
2021/03/08 11:44:18;;;;;;;13.15;5.50;;;6.10;99.90;;;;;;5024998;28;20049;-73
2021/03/08 11:47:03;;;;;;;10.85;5.85;;;6.30;99.90;;;;;;5022015;28;20161;-73
2021/03/08 11:49:47;;;;;;;9.32;5.53;;;6.40;99.90;;;;;;5019977;28;20086;-73
2021/03/08 11:52:31;;;;;;;12.27;5.80;;;6.40;99.90;;;;;;5025757;28;20056;-73
2021/03/08 11:55:17;;;;;;;12.27;5.35;;;6.20;99.90;;;;;;5019876;28;20096;-72
2021/03/08 11:58:01;;;;;;;11.98;5.97;;;6.70;99.90;;;;;;5025627;28;20044;-73
2021/03/08 12:00:45;;;;;;;11.98;6.53;;;6.70;99.90;;;;;;5026073;28;20407;-73
2021/03/08 12:03:29;;;;;;;15.82;6.25;;;6.70;99.90;;;;;;5019315;28;20048;-73
2021/03/08 12:06:13;;;;;;;11.52;6.00;;;6.90;99.90;;;;;;5019180;28;20406;-73
2021/03/08 12:08:58;;;;;;;10.77;5.68;;;6.90;99.90;;;;;;5018291;28;20069;-73
2021/03/08 12:11:42;;;;;;;11.93;5.93;;;7.10;99.90;;;;;;5023748;28;20111;-73
2021/03/08 12:14:28;;;;;;;13.15;5.95;;;7.10;99.90;;;;;;5020679;28;20064;-73
2021/03/08 12:17:12;;;;;;;10.20;5.82;;;6.90;99.90;;;;;;5022409;28;20518;-73
2021/03/08 12:19:57;;;;;;;9.30;5.53;;;6.70;99.90;;;;;;5025118;28;20049;-73
2021/03/08 12:22:42;;;;;;;12.85;5.38;;;6.90;99.90;;;;;;5023909;28;20426;-72
2021/03/08 12:25:27;;;;;;;9.10;5.75;;;7.20;99.90;;;;;;5020720;28;20044;-73
2021/03/08 12:28:11;;;;;;;9.98;4.90;;;7.10;99.90;;;;;;5024546;28;20115;-73
2021/03/08 12:30:55;;;;;;;9.77;4.95;;;6.80;99.90;;;;;;5015794;28;20626;-73
2021/03/08 12:33:39;;;;;;;12.25;5.85;;;6.80;99.90;;;;;;5024940;28;20084;-73
2021/03/08 12:36:24;;;;;;;10.35;4.70;;;7.00;99.90;;;;;;5018301;28;20052;-73
2021/03/08 12:39:08;;;;;;;8.80;5.45;;;6.90;99.90;;;;;;5019431;28;20049;-72
2021/03/08 12:41:52;;;;;;;8.85;5.15;;;7.10;99.90;;;;;;5027063;28;20126;-72
2021/03/08 12:44:37;;;;;;;11.50;5.15;;;7.50;99.90;;;;;;5030426;28;20040;-72
2021/03/08 12:47:21;;;;;;;13.95;4.53;;;7.70;99.90;;;;;;5022937;28;20083;-72
2021/03/08 12:50:06;;;;;;;10.00;5.05;;;8.00;99.90;;;;;;5023188;28;20053;-72
2021/03/08 12:52:50;;;;;;;7.70;4.78;;;8.20;99.30;;;;;;5022828;28;20488;-72
2021/03/08 12:55:35;;;;;;;10.52;5.15;;;8.10;98.30;;;;;;5024483;28;20121;-72
2021/03/08 12:58:19;;;;;;;12.13;5.55;;;8.00;99.40;;;;;;5021435;28;20462;-72
2021/03/08 13:01:04;;;;;;;8.32;4.32;;;7.60;99.20;;;;;;5018841;28;20052;-74
2021/03/08 13:03:48;;;;;;;9.90;5.03;;;8.20;98.70;;;;;;5024334;28;20045;-72
2021/03/08 13:06:32;;;;;;;7.05;3.92;;;8.20;99.20;;;;;;5020593;28;20071;-72
2021/03/08 13:09:16;;;;;;;7.45;4.35;;;8.30;98.10;;;;;;5017509;28;20040;-73
2021/03/08 13:12:00;;;;;;;6.85;3.63;;;8.70;97.00;;;;;;5015614;28;20080;-73
2021/03/08 13:14:46;;;;;;;8.10;4.15;;;8.60;95.90;;;;;;5029287;28;20068;-73
2021/03/08 13:17:30;;;;;;;10.98;4.53;;;8.50;96.70;;;;;;5018524;28;20146;-72
2021/03/08 13:20:16;;;;;;;9.70;4.65;;;8.10;97.90;;;;;;5030594;28;20072;-72
2021/03/08 13:23:01;;;;;;;7.32;4.50;;;8.00;97.90;;;;;;5027305;28;20033;-72
2021/03/08 13:25:45;;;;;;;8.55;3.95;;;8.40;97.70;;;;;;5027989;28;20044;-72
2021/03/08 13:28:29;;;;;;;9.00;4.00;;;9.20;93.70;;;;;;5028401;28;20043;-72
2021/03/08 13:31:13;;;;;;;7.25;3.92;;;8.90;93.40;;;;;;5026344;28;20100;-73
2021/03/08 13:33:57;;;;;;;6.25;4.47;;;9.30;94.10;;;;;;5023636;28;20049;-73
2021/03/08 13:36:42;;;;;;;8.63;4.20;;;10.40;91.30;;;;;;5023824;28;20473;-73
2021/03/08 13:39:27;;;;;;;7.82;4.03;;;12.30;72.90;;;;;;5023577;28;20040;-73
2021/03/08 13:42:11;;;;;;;7.85;4.20;;;11.50;66.80;;;;;;5025185;28;20044;-73
2021/03/08 13:44:55;;;;;;;8.20;4.35;;;12.20;66.60;;;;;;5019029;28;20103;-73
2021/03/08 13:47:40;;;;;;;5.50;3.40;;;14.00;58.00;;;;;;5023773;28;20055;-73
2021/03/08 13:50:24;;;;;;;7.35;4.05;;;16.20;54.90;;;;;;5021769;28;20064;-73
2021/03/08 13:53:08;;;;;;;5.60;3.40;;;16.40;44.80;;;;;;5030567;28;20513;-74
2021/03/08 13:55:52;;;;;;;6.88;4.28;;;16.30;45.80;;;;;;5023764;28;20049;-74
2021/03/08 13:58:36;;;;;;;7.78;4.03;;;15.10;47.50;;;;;;5026663;28;20048;-74
2021/03/08 14:01:20;;;;;;;9.57;4.20;;;14.10;46.70;;;;;;5024424;28;20148;-73
2021/03/08 14:04:05;;;;;;;8.52;4.10;;;13.50;50.80;;;;;;5026643;28;20044;-73
2021/03/08 14:06:49;;;;;;;5.43;3.65;;;13.60;49.00;;;;;;5029421;28;20139;-73
2021/03/08 14:09:34;;;;;;;8.35;4.10;;;13.10;52.20;;;;;;5029078;28;20060;-73
2021/03/08 14:12:19;;;;;;;10.30;5.22;;;11.70;54.20;;;;;;5030668;28;20075;-73
2021/03/08 14:15:04;;;;;;;9.13;4.72;;;10.30;65.60;;;;;;5022955;28;20171;-73
2021/03/08 14:17:48;;;;;;;9.27;5.85;;;9.40;83.80;;;;;;5025696;28;20060;-73
2021/03/08 14:20:32;;;;;;;7.57;4.90;;;9.80;89.30;;;;;;5027144;28;20049;-73